createdAt,value
2022-10-14T00:01:22.277Z,20.15
2022-10-14T00:03:50.127Z,20.27
2022-10-14T00:06:20.231Z,20.60
2022-10-14T00:08:49.506Z,19.42
2022-10-14T00:11:19.950Z,20.25
2022-10-14T00:13:47.000Z,19.35
2022-10-14T00:16:19.116Z,21.08
2022-10-14T00:18:46.193Z,20.00
2022-10-14T00:21:13.051Z,19.27
2022-10-14T00:23:39.535Z,20.08
2022-10-14T00:26:06.399Z,20.45
2022-10-14T00:28:33.019Z,20.65
2022-10-14T00:31:01.483Z,18.92
2022-10-14T00:33:29.001Z,18.30
2022-10-14T00:36:00.371Z,19.85
2022-10-14T00:38:27.269Z,18.85
2022-10-14T00:40:54.461Z,18.20
2022-10-14T00:43:22.963Z,20.35
2022-10-14T00:45:49.480Z,19.08
2022-10-14T00:48:17.792Z,17.90
2022-10-14T00:50:47.179Z,18.75
2022-10-14T00:53:14.619Z,18.63
2022-10-14T00:55:42.600Z,19.02
2022-10-14T00:58:10.405Z,18.98
2022-10-14T01:00:37.519Z,18.77
2022-10-14T01:03:09.396Z,18.35
2022-10-14T01:05:44.840Z,18.40
2022-10-14T01:08:22.274Z,17.35
2022-10-14T01:11:02.586Z,17.20
2022-10-14T01:16:09.387Z,19.10
2022-10-14T01:18:56.598Z,16.95
2022-10-14T01:21:32.048Z,18.45
2022-10-14T01:24:12.839Z,17.52
2022-10-14T01:27:10.293Z,17.23
2022-10-14T01:30:19.743Z,17.10
2022-10-14T01:33:08.877Z,17.52
2022-10-14T01:35:56.018Z,16.38
2022-10-14T01:38:31.939Z,17.30
2022-10-14T01:43:31.423Z,16.45
2022-10-14T01:46:01.057Z,16.65
2022-10-14T01:48:32.862Z,17.42
2022-10-14T01:51:01.986Z,17.13
2022-10-14T01:53:39.499Z,17.67
2022-10-14T01:56:07.374Z,17.05
2022-10-14T01:58:35.447Z,17.63
2022-10-14T02:01:06.590Z,17.23
2022-10-14T02:03:44.735Z,17.52
2022-10-14T02:06:36.091Z,19.60
2022-10-14T02:09:12.700Z,19.27
2022-10-14T02:12:05.445Z,18.85
2022-10-14T02:14:31.745Z,18.02
2022-10-14T02:17:11.703Z,18.90
2022-10-14T02:19:49.362Z,18.42
2022-10-14T02:22:32.125Z,20.20
2022-10-14T02:25:06.137Z,18.00
2022-10-14T02:27:34.805Z,18.52
2022-10-14T02:30:04.688Z,19.13
2022-10-14T02:32:32.322Z,18.75
2022-10-14T02:35:00.965Z,18.33
2022-10-14T02:37:29.211Z,19.08
2022-10-14T02:40:00.128Z,19.40
2022-10-14T02:42:27.889Z,18.25
2022-10-14T02:44:56.919Z,18.50
2022-10-14T02:47:24.588Z,18.50
2022-10-14T02:49:51.986Z,18.50
2022-10-14T02:52:18.892Z,18.65
2022-10-14T02:54:45.667Z,19.05
2022-10-14T02:57:12.079Z,18.52
2022-10-14T02:59:39.582Z,18.70
2022-10-14T03:02:09.880Z,19.02
2022-10-14T03:04:36.514Z,19.08
2022-10-14T03:07:03.948Z,20.20
2022-10-14T03:09:30.302Z,18.90
2022-10-14T03:11:56.632Z,17.70
2022-10-14T03:14:23.033Z,19.38
2022-10-14T03:16:49.424Z,18.20
2022-10-14T03:19:15.975Z,18.10
2022-10-14T03:21:42.299Z,18.30
2022-10-14T03:24:09.723Z,18.75
2022-10-14T03:26:36.223Z,18.80
2022-10-14T03:29:02.601Z,19.67
2022-10-14T03:31:28.918Z,18.77
2022-10-14T03:33:55.330Z,18.05
2022-10-14T03:36:21.650Z,18.98
2022-10-14T03:38:47.990Z,18.75
2022-10-14T03:41:14.332Z,18.70
2022-10-14T03:43:40.653Z,18.35
2022-10-14T03:46:06.982Z,19.40
2022-10-14T03:48:33.322Z,18.10
2022-10-14T03:50:59.646Z,18.95
2022-10-14T03:53:26.022Z,18.00
2022-10-14T03:55:52.338Z,19.58
2022-10-14T03:58:18.681Z,19.67
2022-10-14T04:00:45.033Z,19.35
2022-10-14T04:03:11.385Z,18.95
2022-10-14T04:05:37.776Z,17.80
2022-10-14T04:08:04.431Z,18.25
2022-10-14T04:10:31.096Z,18.80
2022-10-14T04:12:57.572Z,20.23
2022-10-14T04:15:24.265Z,20.73
2022-10-14T04:17:50.597Z,19.60
2022-10-14T04:20:17.437Z,18.85
2022-10-14T04:22:43.956Z,17.67
2022-10-14T04:25:10.488Z,19.75
2022-10-14T04:27:36.990Z,19.20
2022-10-14T04:30:04.636Z,18.98
2022-10-14T04:32:31.025Z,18.48
2022-10-14T04:34:57.383Z,18.45
2022-10-14T04:37:23.706Z,18.83
2022-10-14T04:39:50.495Z,18.98
2022-10-14T04:42:16.902Z,20.73
2022-10-14T04:44:43.247Z,21.10
2022-10-14T04:47:09.574Z,20.80
2022-10-14T04:49:35.905Z,20.00
2022-10-14T04:52:02.279Z,19.02
2022-10-14T04:54:28.607Z,19.75
2022-10-14T04:56:54.956Z,19.88
2022-10-14T04:59:21.365Z,19.30
2022-10-14T05:01:47.728Z,18.75
2022-10-14T05:04:14.348Z,18.08
2022-10-14T05:06:40.793Z,19.15
2022-10-14T05:09:07.183Z,20.33
2022-10-14T05:11:33.830Z,18.38
2022-10-14T05:14:00.299Z,17.98
2022-10-14T05:16:26.892Z,16.67
2022-10-14T05:18:53.285Z,19.27
2022-10-14T05:21:19.618Z,18.40
2022-10-14T05:23:45.983Z,19.73
2022-10-14T05:26:12.319Z,19.45
2022-10-14T05:28:38.728Z,19.95
2022-10-14T05:31:05.730Z,17.95
2022-10-14T05:33:32.426Z,18.13
2022-10-14T05:35:59.883Z,17.90
2022-10-14T05:38:26.718Z,20.35
2022-10-14T05:40:55.293Z,20.45
2022-10-14T05:43:22.100Z,19.65
2022-10-14T05:45:48.475Z,19.58
2022-10-14T05:48:15.170Z,19.73
2022-10-14T05:50:43.199Z,20.77
2022-10-14T05:53:10.554Z,18.75
2022-10-14T05:55:37.159Z,20.08
2022-10-14T05:58:04.101Z,20.15
2022-10-14T06:00:30.875Z,20.23
2022-10-14T06:02:58.652Z,18.35
2022-10-14T06:05:25.067Z,19.27
2022-10-14T06:07:51.493Z,19.90
2022-10-14T06:10:18.090Z,20.33
2022-10-14T06:12:44.497Z,21.20
2022-10-14T06:15:10.951Z,19.58
2022-10-14T06:17:37.335Z,19.58
2022-10-14T06:20:03.930Z,20.48
2022-10-14T06:22:30.775Z,20.23
2022-10-14T06:25:00.488Z,19.55
2022-10-14T06:27:30.286Z,21.90
2022-10-14T06:29:56.644Z,21.48
2022-10-14T06:32:23.332Z,22.20
2022-10-14T06:34:50.006Z,23.48
2022-10-14T06:37:16.328Z,23.67
2022-10-14T06:39:45.002Z,22.10
2022-10-14T06:42:13.266Z,20.67
2022-10-14T06:44:39.841Z,21.42
2022-10-14T06:47:07.143Z,21.20
2022-10-14T06:49:33.912Z,23.85
2022-10-14T06:52:00.329Z,24.60
2022-10-14T06:54:26.673Z,23.33
2022-10-14T06:56:53.006Z,24.65
2022-10-14T06:59:20.401Z,24.08
2022-10-14T07:01:46.773Z,24.23
2022-10-14T07:04:13.146Z,22.83
2022-10-14T07:06:39.533Z,23.58
2022-10-14T07:09:05.866Z,23.38
2022-10-14T07:11:32.219Z,24.88
2022-10-14T07:13:59.197Z,24.52
2022-10-14T07:16:26.435Z,24.27
2022-10-14T07:18:52.830Z,25.00
2022-10-14T07:21:19.335Z,23.95
2022-10-14T07:23:45.848Z,26.52
2022-10-14T07:26:12.183Z,26.10
2022-10-14T07:28:40.506Z,26.20
2022-10-14T07:31:09.790Z,25.10
2022-10-14T07:36:05.978Z,24.20
2022-10-14T07:38:32.850Z,26.67
2022-10-14T07:41:05.465Z,26.02
2022-10-14T07:43:33.331Z,24.70
2022-10-14T07:46:05.565Z,25.80
2022-10-14T07:48:52.192Z,24.83
2022-10-14T07:51:20.367Z,23.52
2022-10-14T07:53:49.101Z,23.55
2022-10-14T07:56:15.623Z,22.80
2022-10-14T07:58:44.506Z,22.40
2022-10-14T08:01:11.303Z,22.80
2022-10-14T08:03:37.865Z,23.42
2022-10-14T08:06:05.266Z,22.48
2022-10-14T08:08:32.411Z,24.00
2022-10-14T08:11:02.935Z,23.10
2022-10-14T08:13:30.197Z,22.50
2022-10-14T08:15:56.859Z,23.13
2022-10-14T08:18:23.487Z,22.73
2022-10-14T08:20:49.802Z,22.00
2022-10-14T08:23:19.102Z,22.08
2022-10-14T08:25:50.026Z,22.60
2022-10-14T08:28:16.475Z,21.42
2022-10-14T08:30:42.887Z,19.45
2022-10-14T08:33:09.236Z,20.85
2022-10-14T08:35:35.603Z,20.58
2022-10-14T08:38:02.052Z,19.95
2022-10-14T08:40:30.678Z,19.35
2022-10-14T08:43:01.919Z,20.42
2022-10-14T08:45:37.229Z,18.85
2022-10-14T08:48:17.645Z,20.02
2022-10-14T08:50:54.641Z,17.63
2022-10-14T08:53:28.616Z,16.55
2022-10-14T08:56:00.437Z,16.55
2022-10-14T08:58:32.003Z,15.93
2022-10-14T09:01:03.098Z,15.50
2022-10-14T09:03:34.717Z,15.18
2022-10-14T09:06:04.993Z,13.75
2022-10-14T09:08:40.513Z,13.38
2022-10-14T09:11:12.982Z,12.45
2022-10-14T09:13:42.965Z,11.93
2022-10-14T09:16:25.189Z,11.57
2022-10-14T09:19:00.851Z,10.52
2022-10-14T09:21:53.000Z,10.68
2022-10-14T09:24:23.819Z,10.45
2022-10-14T09:27:09.095Z,9.93
2022-10-14T09:29:54.132Z,9.00
2022-10-14T09:32:29.777Z,9.38
2022-10-14T09:34:57.791Z,8.73
2022-10-14T09:37:33.150Z,9.02
2022-10-14T09:39:59.441Z,8.15
2022-10-14T09:42:58.763Z,8.48
2022-10-14T09:45:27.672Z,7.68
2022-10-14T09:47:57.621Z,7.05
2022-10-14T09:50:31.286Z,7.22
2022-10-14T09:53:03.678Z,7.10
2022-10-14T09:55:31.258Z,6.10
2022-10-14T09:58:07.311Z,5.80
2022-10-14T10:00:37.596Z,5.38
2022-10-14T10:03:04.759Z,5.20
2022-10-14T10:05:33.389Z,5.32
2022-10-14T10:08:20.007Z,4.90
2022-10-14T10:11:07.167Z,4.80
2022-10-14T10:13:43.411Z,3.97
2022-10-14T10:16:31.370Z,4.15
2022-10-14T10:19:01.221Z,4.30
2022-10-14T10:21:30.123Z,3.60
2022-10-14T10:24:01.182Z,3.17
2022-10-14T10:26:32.051Z,3.00
2022-10-14T10:29:04.492Z,2.72
2022-10-14T10:31:35.762Z,2.90
2022-10-14T10:34:25.841Z,2.90
2022-10-14T10:37:00.104Z,2.15
2022-10-14T10:39:42.145Z,2.28
2022-10-14T10:42:25.337Z,2.20
2022-10-14T10:45:06.347Z,2.30
2022-10-14T10:47:37.781Z,1.95
2022-10-14T10:50:13.473Z,1.90
2022-10-14T10:52:59.571Z,2.00
2022-10-14T10:56:11.471Z,1.83
2022-10-14T10:59:03.092Z,2.20
2022-10-14T11:01:39.089Z,2.00
2022-10-14T11:04:25.839Z,2.13
2022-10-14T11:07:35.636Z,2.00
2022-10-14T11:10:24.527Z,2.05
2022-10-14T11:13:05.543Z,1.75
2022-10-14T11:15:45.505Z,1.60
2022-10-14T11:18:22.872Z,1.88
2022-10-14T11:21:07.985Z,3.15
2022-10-14T11:24:17.502Z,2.13
2022-10-14T11:26:55.776Z,1.92
2022-10-14T11:29:50.111Z,2.30
2022-10-14T11:32:38.177Z,2.20
2022-10-14T11:35:47.046Z,2.00
2022-10-14T11:38:31.881Z,1.80
2022-10-14T11:41:17.661Z,1.80
2022-10-14T11:43:51.951Z,1.70
2022-10-14T11:46:21.475Z,1.40
2022-10-14T11:48:53.845Z,1.38
2022-10-14T11:51:40.547Z,1.67
2022-10-14T11:54:16.707Z,1.48
2022-10-14T11:57:02.559Z,1.70
2022-10-14T11:59:44.880Z,1.65
2022-10-14T12:02:19.409Z,1.60
2022-10-14T12:04:54.149Z,1.83
2022-10-14T12:07:29.140Z,1.60
2022-10-14T12:10:01.588Z,1.73
2022-10-14T12:12:30.038Z,1.80
2022-10-14T12:15:05.674Z,1.90
2022-10-14T12:17:54.833Z,1.52
2022-10-14T12:20:47.819Z,1.73
2022-10-14T12:23:32.815Z,1.52
2022-10-14T12:26:30.068Z,1.63
2022-10-14T12:28:58.776Z,1.52
2022-10-14T12:31:27.815Z,1.25
2022-10-14T12:34:13.434Z,1.48
2022-10-14T12:36:42.276Z,1.50
2022-10-14T12:39:17.962Z,1.77
2022-10-14T12:41:54.170Z,1.65
2022-10-14T12:44:23.210Z,1.52
2022-10-14T12:46:53.039Z,1.75
2022-10-14T12:49:29.171Z,1.80
2022-10-14T12:52:02.668Z,1.67
2022-10-14T12:54:31.565Z,1.73
2022-10-14T12:57:28.706Z,1.80
2022-10-14T12:59:59.292Z,1.60
2022-10-14T13:02:35.837Z,1.42
2022-10-14T13:05:08.503Z,1.35
2022-10-14T13:07:41.176Z,1.25
2022-10-14T13:10:27.597Z,1.40
2022-10-14T13:12:54.049Z,1.02
2022-10-14T13:15:51.121Z,1.08
2022-10-14T13:18:34.609Z,1.30
2022-10-14T13:21:01.808Z,1.25
2022-10-14T13:23:31.062Z,1.10
2022-10-14T13:26:17.671Z,1.10
2022-10-14T13:29:09.508Z,1.20
2022-10-14T13:31:58.673Z,1.08
2022-10-14T13:34:43.435Z,1.30
2022-10-14T13:37:34.740Z,1.20
2022-10-14T13:40:17.714Z,1.27
2022-10-14T13:42:56.613Z,1.10
2022-10-14T13:45:31.935Z,1.20
2022-10-14T13:47:58.607Z,1.02
2022-10-14T13:50:32.724Z,1.10
2022-10-14T13:53:03.227Z,1.00
2022-10-14T13:55:30.663Z,1.08
2022-10-14T13:58:13.586Z,1.27
2022-10-14T14:00:45.392Z,1.00
2022-10-14T14:03:23.695Z,1.10
2022-10-14T14:05:51.150Z,1.17
2022-10-14T14:08:40.294Z,1.00
2022-10-14T14:11:16.834Z,0.90
2022-10-14T14:13:59.012Z,0.90
2022-10-14T14:16:33.271Z,0.95
2022-10-14T14:19:14.848Z,1.00
2022-10-14T14:21:41.266Z,1.30
2022-10-14T14:24:16.610Z,1.00
2022-10-14T14:26:43.943Z,0.90
2022-10-14T14:29:19.494Z,0.80
2022-10-14T14:32:06.052Z,1.08
2022-10-14T14:34:35.916Z,0.73
2022-10-14T14:37:16.604Z,0.80
2022-10-14T14:40:03.291Z,0.90
2022-10-14T14:42:39.431Z,0.90
2022-10-14T14:45:17.905Z,1.00
2022-10-14T14:47:44.778Z,1.00
2022-10-14T14:50:29.863Z,1.30
2022-10-14T14:53:03.469Z,1.00
2022-10-14T14:55:56.824Z,1.05
2022-10-14T14:58:29.093Z,1.10
2022-10-14T15:00:55.840Z,1.40
2022-10-14T15:03:26.086Z,1.33
2022-10-14T15:06:02.257Z,1.35
2022-10-14T15:08:35.951Z,1.15
2022-10-14T15:11:02.604Z,1.30
2022-10-14T15:13:32.517Z,1.25
2022-10-14T15:15:59.447Z,1.33
2022-10-14T15:18:28.209Z,1.20
2022-10-14T15:21:09.727Z,1.52
2022-10-14T15:23:48.183Z,1.25
2022-10-14T15:26:35.855Z,1.35
2022-10-14T15:29:22.437Z,1.40
2022-10-14T15:32:04.023Z,1.20
2022-10-14T15:34:30.880Z,1.40
2022-10-14T15:36:57.271Z,1.60
2022-10-14T15:39:23.710Z,1.83
2022-10-14T15:41:50.054Z,2.10
2022-10-14T15:44:16.507Z,2.10
2022-10-14T15:47:03.056Z,2.10
2022-10-14T15:49:42.050Z,2.30
2022-10-14T15:52:13.863Z,2.90
2022-10-14T15:54:40.191Z,3.50
2022-10-14T15:57:07.101Z,3.35
2022-10-14T15:59:34.610Z,3.60
2022-10-14T16:02:01.343Z,3.53
2022-10-14T16:04:29.045Z,3.70
2022-10-14T16:06:56.714Z,3.03
2022-10-14T16:09:25.050Z,3.15
2022-10-14T16:11:57.278Z,3.50
2022-10-14T16:14:25.331Z,3.15
2022-10-14T16:16:51.703Z,3.20
2022-10-14T16:19:18.721Z,3.55
2022-10-14T16:21:45.295Z,4.10
2022-10-14T16:24:18.829Z,4.00
2022-10-14T16:26:45.196Z,3.67
2022-10-14T16:29:11.530Z,4.20
2022-10-14T16:31:38.868Z,4.57
2022-10-14T16:34:05.216Z,4.07
2022-10-14T16:36:31.807Z,4.07
2022-10-14T16:38:58.182Z,3.80
2022-10-14T16:41:25.017Z,4.43
2022-10-14T16:43:51.352Z,3.40
2022-10-14T16:46:17.687Z,3.28
2022-10-14T16:48:44.633Z,3.60
2022-10-14T16:51:11.094Z,3.67
2022-10-14T16:53:40.469Z,3.65
2022-10-14T16:56:33.667Z,3.13
2022-10-14T16:59:00.867Z,2.97
2022-10-14T17:01:28.149Z,3.35
2022-10-14T17:03:56.426Z,3.25
2022-10-14T17:06:24.320Z,3.60
2022-10-14T17:08:51.257Z,3.40
2022-10-14T17:11:18.208Z,3.75
2022-10-14T17:13:44.560Z,3.80
2022-10-14T17:16:11.150Z,3.70
2022-10-14T17:18:37.885Z,3.60
2022-10-14T17:21:10.588Z,3.78
2022-10-14T17:23:40.207Z,4.18
2022-10-14T17:26:06.998Z,3.95
2022-10-14T17:28:33.497Z,4.35
2022-10-14T17:31:01.301Z,3.95
2022-10-14T17:33:27.895Z,4.60
2022-10-14T17:35:59.244Z,4.22
2022-10-14T17:38:27.707Z,4.60
2022-10-14T17:41:06.095Z,4.65
2022-10-14T17:43:32.850Z,5.20
2022-10-14T17:48:35.081Z,5.32
2022-10-14T17:51:02.213Z,5.45
2022-10-14T17:53:28.875Z,6.28
2022-10-14T17:55:57.762Z,6.00
2022-10-14T17:58:24.278Z,6.38
2022-10-14T18:00:51.439Z,6.35
2022-10-14T18:03:18.566Z,6.68
2022-10-14T18:05:48.143Z,6.43
2022-10-14T18:08:15.447Z,6.75
2022-10-14T18:10:41.870Z,6.78
2022-10-14T18:13:08.182Z,6.40
2022-10-14T18:15:34.604Z,6.65
2022-10-14T18:18:01.198Z,6.63
2022-10-14T18:20:27.721Z,6.65
2022-10-14T18:22:54.182Z,6.60
2022-10-14T18:25:21.049Z,7.00
2022-10-14T18:27:47.522Z,7.10
2022-10-14T18:30:14.137Z,7.10
2022-10-14T18:32:40.538Z,7.93
2022-10-14T18:35:07.002Z,7.53
2022-10-14T18:37:33.467Z,7.47
2022-10-14T18:40:00.022Z,7.55
2022-10-14T18:42:26.871Z,7.07
2022-10-14T18:44:53.652Z,7.13
2022-10-14T18:47:19.983Z,7.07
2022-10-14T18:49:48.272Z,7.40
2022-10-14T18:52:14.661Z,7.00
2022-10-14T18:54:41.031Z,7.05
2022-10-14T18:57:07.479Z,7.03
2022-10-14T18:59:35.653Z,7.05
2022-10-14T19:02:02.308Z,6.90
2022-10-14T19:04:28.720Z,7.20
2022-10-14T19:06:55.166Z,6.57
2022-10-14T19:09:24.544Z,6.70
2022-10-14T19:11:52.089Z,6.88
2022-10-14T19:14:18.482Z,6.45
2022-10-14T19:16:47.345Z,5.68
2022-10-14T19:19:16.766Z,5.93
2022-10-14T19:21:44.641Z,4.72
2022-10-14T19:24:12.767Z,5.60
2022-10-14T19:26:43.024Z,5.97
2022-10-14T19:29:12.116Z,6.68
2022-10-14T19:31:39.642Z,5.65
2022-10-14T19:34:08.150Z,6.05
2022-10-14T19:36:36.785Z,6.13
2022-10-14T19:39:05.248Z,5.97
2022-10-14T19:41:34.040Z,6.03
2022-10-14T19:44:01.244Z,6.85
2022-10-14T19:46:29.209Z,6.65
2022-10-14T19:48:58.460Z,6.53
2022-10-14T19:51:25.950Z,6.93
2022-10-14T19:53:54.926Z,7.10
2022-10-14T19:56:22.311Z,7.50
2022-10-14T19:58:54.378Z,7.97
2022-10-14T20:01:23.727Z,7.93
2022-10-14T20:03:50.247Z,8.05
2022-10-14T20:06:16.691Z,8.93
2022-10-14T20:08:45.144Z,8.68
2022-10-14T20:11:17.159Z,9.57
2022-10-14T20:13:44.119Z,9.07
2022-10-14T20:16:11.767Z,9.00
2022-10-14T20:18:38.283Z,9.07
2022-10-14T20:21:06.926Z,9.65
2022-10-14T20:23:35.109Z,9.57
2022-10-14T20:26:03.955Z,10.75
2022-10-14T20:28:30.707Z,9.70
2022-10-14T20:30:57.467Z,10.23
2022-10-14T20:33:24.589Z,10.40
2022-10-14T20:36:01.757Z,9.95
2022-10-14T20:38:28.568Z,10.35
2022-10-14T20:40:55.033Z,10.15
2022-10-14T20:43:21.469Z,10.25
2022-10-14T20:45:47.839Z,10.10
2022-10-14T20:48:14.409Z,9.18
2022-10-14T20:50:41.918Z,10.60
2022-10-14T20:53:08.402Z,9.48
2022-10-14T20:55:34.731Z,10.40
2022-10-14T20:58:01.128Z,9.85
2022-10-14T21:00:27.767Z,9.85
2022-10-14T21:02:54.148Z,9.63
2022-10-14T21:05:20.564Z,10.45
2022-10-14T21:07:46.939Z,9.77
2022-10-14T21:10:13.292Z,10.15
2022-10-14T21:12:39.734Z,10.88
2022-10-14T21:15:06.641Z,10.48
2022-10-14T21:17:33.042Z,10.25
2022-10-14T21:19:59.409Z,10.48
2022-10-14T21:22:25.982Z,10.63
2022-10-14T21:24:52.595Z,11.93
2022-10-14T21:27:18.966Z,11.07
2022-10-14T21:29:47.909Z,10.73
2022-10-14T21:32:14.304Z,11.25
2022-10-14T21:34:40.691Z,11.02
2022-10-14T21:37:07.077Z,11.23
2022-10-14T21:39:33.488Z,10.07
2022-10-14T21:42:00.049Z,10.70
2022-10-14T21:44:26.479Z,11.88
2022-10-14T21:46:52.879Z,11.63
2022-10-14T21:49:19.304Z,11.95
2022-10-14T21:51:45.638Z,11.25
2022-10-14T21:54:12.711Z,12.20
2022-10-14T21:56:39.317Z,11.80
2022-10-14T21:59:06.264Z,11.52
2022-10-14T22:01:32.867Z,11.95
2022-10-14T22:04:03.564Z,11.27
2022-10-14T22:06:31.160Z,11.43
2022-10-14T22:09:00.096Z,12.52
2022-10-14T22:11:35.115Z,12.07
2022-10-14T22:14:03.494Z,11.33
2022-10-14T22:16:30.728Z,13.27
2022-10-14T22:19:02.503Z,13.48
2022-10-14T22:21:31.158Z,14.93
2022-10-14T22:23:58.857Z,13.40
2022-10-14T22:26:27.346Z,14.55
2022-10-14T22:28:59.165Z,13.88
2022-10-14T22:31:26.620Z,14.75
2022-10-14T22:33:53.101Z,14.27
2022-10-14T22:36:24.018Z,16.05
2022-10-14T22:38:52.312Z,16.02
2022-10-14T22:41:19.656Z,14.63
2022-10-14T22:43:51.666Z,16.67
2022-10-14T22:46:20.724Z,16.02
2022-10-14T22:48:48.723Z,15.90
2022-10-14T22:51:18.357Z,14.77
2022-10-14T22:53:46.181Z,16.08
2022-10-14T22:56:16.609Z,17.25
2022-10-14T22:58:43.038Z,16.88
2022-10-14T23:01:15.222Z,16.38
2022-10-14T23:03:42.533Z,17.27
2022-10-14T23:06:12.207Z,17.10
2022-10-14T23:08:39.419Z,16.63
2022-10-14T23:11:06.307Z,16.38
2022-10-14T23:13:33.749Z,15.57
2022-10-14T23:16:02.548Z,14.80
2022-10-14T23:18:31.612Z,15.45
2022-10-14T23:20:58.055Z,16.90
2022-10-14T23:23:24.751Z,17.05
2022-10-14T23:25:51.096Z,16.02
2022-10-14T23:28:17.467Z,16.38
2022-10-14T23:30:43.876Z,17.35
2022-10-14T23:33:11.734Z,16.67
2022-10-14T23:35:38.851Z,16.67
2022-10-14T23:38:05.422Z,17.10
2022-10-14T23:40:31.847Z,18.52
2022-10-14T23:42:58.307Z,17.75
2022-10-14T23:45:24.719Z,20.77
2022-10-14T23:47:51.247Z,20.08
2022-10-14T23:50:17.760Z,18.60
2022-10-14T23:52:45.786Z,19.00
2022-10-14T23:55:13.578Z,18.90
2022-10-14T23:57:40.423Z,19.52
